Time;durP1;ratioP1;P1;durP2;ratioP2;P2;SDS_P1;SDS_P2;PMS_P1;PMS_P2;Temp;Humidity;BMP_temperature;BMP_pressure;BME280_temperature;BME280_humidity;BME280_pressure;Samples;Min_cycle;Max_cycle;Signal;HPM_P1;HPM_P2
2022/03/01 00:00:40;;;;;;;31.60;18.57;;;1.30;99.90;;;;;;5030303;28;20271;-55
2022/03/01 00:03:09;;;;;;;32.03;17.57;;;1.30;99.90;;;;;;5029373;28;20217;-56
2022/03/01 00:05:37;;;;;;;30.60;17.43;;;1.30;99.90;;;;;;5029642;28;20303;-55
2022/03/01 00:08:06;;;;;;;31.60;17.47;;;1.30;99.90;;;;;;5029740;28;20223;-56
2022/03/01 00:10:34;;;;;;;33.70;18.80;;;1.30;99.90;;;;;;5030070;28;20208;-56
2022/03/01 00:13:02;;;;;;;32.07;18.20;;;1.30;99.90;;;;;;5029397;28;20255;-56
2022/03/01 00:15:31;;;;;;;33.83;18.17;;;1.20;99.90;;;;;;5030295;28;20216;-56
2022/03/01 00:18:00;;;;;;;32.83;19.37;;;1.20;99.90;;;;;;5029734;28;20274;-55
2022/03/01 00:20:28;;;;;;;32.20;18.63;;;1.20;99.90;;;;;;5030213;28;20203;-55
2022/03/01 00:22:56;;;;;;;30.40;17.60;;;1.10;99.90;;;;;;5029501;28;20645;-55
2022/03/01 00:25:24;;;;;;;30.63;17.27;;;1.10;99.90;;;;;;5029519;28;20222;-56
2022/03/01 00:27:52;;;;;;;31.30;17.17;;;1.10;99.90;;;;;;5029864;28;20226;-56
2022/03/01 00:30:21;;;;;;;30.30;17.80;;;1.00;99.90;;;;;;5029596;28;20212;-55
2022/03/01 00:32:49;;;;;;;30.67;17.70;;;1.00;99.90;;;;;;5029492;28;20212;-55
2022/03/01 00:35:18;;;;;;;32.93;18.20;;;0.90;99.90;;;;;;5029860;28;20208;-55
2022/03/01 00:37:47;;;;;;;36.27;18.07;;;0.90;99.90;;;;;;5029900;28;20280;-56
2022/03/01 00:40:15;;;;;;;27.77;16.77;;;0.90;99.90;;;;;;5029977;28;20206;-55
2022/03/01 00:42:43;;;;;;;30.73;17.90;;;0.90;99.90;;;;;;5021026;28;20272;-55
2022/03/01 00:45:11;;;;;;;29.53;17.30;;;0.80;99.90;;;;;;5009991;28;20232;-55
2022/03/01 00:47:39;;;;;;;30.50;17.67;;;0.80;99.90;;;;;;5010022;28;20229;-56
2022/03/01 00:50:08;;;;;;;34.10;18.57;;;0.70;99.90;;;;;;5018110;28;20216;-56
2022/03/01 00:52:38;;;;;;;30.40;17.70;;;0.70;99.90;;;;;;5035578;28;20262;-56
2022/03/01 00:55:08;;;;;;;30.80;18.03;;;0.70;99.90;;;;;;5036391;28;20233;-55
2022/03/01 00:57:36;;;;;;;29.43;17.93;;;0.70;99.90;;;;;;5035768;28;20228;-56
2022/03/01 01:00:09;;;;;;;33.33;18.27;;;0.70;99.90;;;;;;5035785;28;20644;-55
2022/03/01 01:02:37;;;;;;;30.37;17.67;;;0.70;99.90;;;;;;5034959;28;20207;-56
2022/03/01 01:05:09;;;;;;;28.10;16.90;;;0.70;99.90;;;;;;5034798;28;20230;-55
2022/03/01 01:07:38;;;;;;;28.43;16.97;;;0.70;99.90;;;;;;5035988;28;20279;-55
2022/03/01 01:10:07;;;;;;;31.40;17.00;;;0.70;99.90;;;;;;5035704;28;20212;-56
2022/03/01 01:12:36;;;;;;;29.80;17.10;;;0.70;99.90;;;;;;5034989;28;20745;-56
2022/03/01 01:15:06;;;;;;;32.30;18.03;;;0.70;99.90;;;;;;5035668;28;20259;-55
2022/03/01 01:17:34;;;;;;;32.67;18.00;;;0.70;99.90;;;;;;5035573;28;20712;-55
2022/03/01 01:20:04;;;;;;;29.30;17.00;;;0.80;99.90;;;;;;5035849;28;20206;-56
2022/03/01 01:22:41;;;;;;;29.73;16.87;;;0.70;99.90;;;;;;5035937;28;20705;-55
2022/03/01 01:25:14;;;;;;;30.63;17.17;;;0.70;99.90;;;;;;5035604;28;20222;-56
2022/03/01 01:27:44;;;;;;;28.40;17.53;;;0.70;99.90;;;;;;5035592;28;20234;-56
2022/03/01 01:30:14;;;;;;;29.70;17.83;;;0.70;99.90;;;;;;5036062;28;20624;-56
2022/03/01 01:32:43;;;;;;;29.67;16.70;;;0.70;99.90;;;;;;5035125;28;20230;-55
2022/03/01 01:35:13;;;;;;;31.10;17.83;;;0.70;99.90;;;;;;5035953;28;20253;-55
2022/03/01 01:37:43;;;;;;;29.00;17.53;;;0.60;99.90;;;;;;5035500;28;20237;-56
2022/03/01 01:40:15;;;;;;;29.40;17.77;;;0.50;99.90;;;;;;5035929;28;20211;-56
2022/03/01 01:42:43;;;;;;;29.87;17.07;;;0.50;99.90;;;;;;5034778;28;20204;-56
2022/03/01 01:45:11;;;;;;;31.70;17.67;;;0.40;99.90;;;;;;5035555;28;20227;-55
2022/03/01 01:47:46;;;;;;;30.33;16.53;;;0.40;99.90;;;;;;5035457;28;20309;-55
2022/03/01 01:50:15;;;;;;;27.70;16.40;;;0.40;99.90;;;;;;5035526;28;20834;-55
2022/03/01 01:52:46;;;;;;;31.23;17.63;;;0.40;99.90;;;;;;5035105;28;20675;-56
2022/03/01 01:55:19;;;;;;;29.17;17.00;;;0.30;99.90;;;;;;5035325;28;20741;-56
2022/03/01 01:57:48;;;;;;;28.83;16.63;;;0.30;99.90;;;;;;5035796;28;20229;-55
2022/03/01 02:00:17;;;;;;;29.43;17.50;;;0.30;99.90;;;;;;5032282;28;20245;-57
2022/03/01 02:02:46;;;;;;;30.27;17.10;;;0.20;99.90;;;;;;5032017;28;20212;-56
2022/03/01 02:05:14;;;;;;;30.20;17.27;;;0.20;99.90;;;;;;5031420;28;20225;-55
2022/03/01 02:07:47;;;;;;;33.70;19.00;;;0.20;99.90;;;;;;5032403;28;20223;-56
2022/03/01 02:10:17;;;;;;;31.73;16.87;;;0.20;99.90;;;;;;5032195;28;20684;-56
2022/03/01 02:12:46;;;;;;;31.33;16.60;;;0.20;99.90;;;;;;5031885;28;20238;-55
2022/03/01 02:15:15;;;;;;;31.50;17.13;;;0.10;99.90;;;;;;5032399;28;20359;-56
2022/03/01 02:17:44;;;;;;;30.90;17.83;;;0.10;99.90;;;;;;5031811;28;20278;-55
2022/03/01 02:20:18;;;;;;;32.90;18.57;;;0.00;99.90;;;;;;5032740;28;20211;-55
2022/03/01 02:22:47;;;;;;;33.20;17.43;;;0.00;99.90;;;;;;5031336;28;20680;-55
2022/03/01 02:25:15;;;;;;;29.20;17.20;;;0.00;99.90;;;;;;5032126;28;20255;-55
2022/03/01 02:27:44;;;;;;;27.90;16.90;;;-0.10;99.90;;;;;;5031671;28;20269;-55
2022/03/01 02:30:12;;;;;;;25.67;16.10;;;-0.10;99.90;;;;;;5031878;28;20689;-55
2022/03/01 02:32:41;;;;;;;30.23;16.63;;;-0.10;99.90;;;;;;5031676;28;20213;-55
2022/03/01 02:35:11;;;;;;;28.10;15.93;;;-0.10;99.90;;;;;;5031539;28;20211;-55
2022/03/01 02:37:41;;;;;;;30.30;15.67;;;-0.20;99.90;;;;;;5031969;28;20235;-55
2022/03/01 02:40:11;;;;;;;29.07;15.27;;;-0.20;99.90;;;;;;5031578;28;20698;-55
2022/03/01 02:42:40;;;;;;;25.43;14.77;;;-0.20;99.90;;;;;;5031251;28;20223;-55
2022/03/01 02:45:11;;;;;;;28.33;15.07;;;-0.30;99.90;;;;;;5031066;28;20234;-55
2022/03/01 02:47:40;;;;;;;23.80;13.47;;;-0.30;99.90;;;;;;5031600;28;20820;-55
2022/03/01 02:50:10;;;;;;;27.93;14.73;;;-0.40;99.90;;;;;;5031591;28;20292;-55
2022/03/01 02:52:38;;;;;;;28.47;15.30;;;-0.30;99.90;;;;;;5031202;28;20211;-55
2022/03/01 02:55:09;;;;;;;23.97;14.33;;;-0.30;99.90;;;;;;5031460;28;20277;-55
2022/03/01 02:57:39;;;;;;;27.60;15.00;;;-0.30;99.90;;;;;;5031160;28;20227;-56
2022/03/01 03:00:10;;;;;;;31.00;15.77;;;-0.30;99.90;;;;;;5031647;28;20209;-56
2022/03/01 03:02:54;;;;;;;25.10;14.73;;;-0.40;99.90;;;;;;5031108;28;20201;-55
2022/03/01 03:05:22;;;;;;;27.53;15.00;;;-0.40;99.90;;;;;;5030707;28;20208;-55
2022/03/01 03:07:50;;;;;;;25.07;14.33;;;-0.40;99.90;;;;;;5030981;28;20230;-55
2022/03/01 03:10:19;;;;;;;25.30;13.83;;;-0.40;99.90;;;;;;5031576;28;20238;-55
2022/03/01 03:12:48;;;;;;;22.30;14.07;;;-0.40;99.90;;;;;;5030690;28;20212;-55
2022/03/01 03:15:16;;;;;;;25.33;14.67;;;-0.40;99.90;;;;;;5031337;28;20241;-55
2022/03/01 03:17:44;;;;;;;27.03;15.37;;;-0.40;99.90;;;;;;5031204;28;20233;-55
2022/03/01 03:20:13;;;;;;;29.00;15.10;;;-0.40;99.90;;;;;;5031184;28;20238;-56
2022/03/01 03:22:41;;;;;;;29.47;16.03;;;-0.40;99.90;;;;;;5030916;28;20211;-55
2022/03/01 03:25:09;;;;;;;27.47;15.00;;;-0.50;99.90;;;;;;5030500;28;20438;-56
2022/03/01 03:27:39;;;;;;;25.83;14.70;;;-0.50;99.90;;;;;;5030906;28;20644;-56
2022/03/01 03:30:10;;;;;;;22.53;14.00;;;-0.60;99.90;;;;;;5030818;28;20250;-55
2022/03/01 03:32:38;;;;;;;24.00;13.80;;;-0.60;99.90;;;;;;5030387;28;20210;-56
2022/03/01 03:35:07;;;;;;;29.13;14.53;;;-0.60;99.90;;;;;;5031002;28;20298;-56
2022/03/01 03:37:35;;;;;;;26.17;14.47;;;-0.60;99.90;;;;;;5030216;28;20256;-55
2022/03/01 03:40:04;;;;;;;25.30;14.03;;;-0.60;99.90;;;;;;5030544;28;20248;-55
2022/03/01 03:42:33;;;;;;;24.57;13.97;;;-0.60;99.90;;;;;;5023697;28;20282;-55
2022/03/01 03:45:09;;;;;;;26.20;14.43;;;-0.70;99.90;;;;;;5011158;28;20195;-55
2022/03/01 03:47:37;;;;;;;25.83;14.97;;;-0.70;99.90;;;;;;5010777;28;20238;-55
2022/03/01 03:50:09;;;;;;;28.63;15.20;;;-0.70;99.90;;;;;;5011326;28;20230;-56
2022/03/01 03:52:37;;;;;;;24.00;14.67;;;-0.70;99.90;;;;;;5010682;28;20254;-55
2022/03/01 03:55:07;;;;;;;25.13;14.17;;;-0.80;99.90;;;;;;5010713;28;20214;-55
2022/03/01 03:57:35;;;;;;;27.37;14.37;;;-0.90;99.90;;;;;;5010555;28;20223;-56
2022/03/01 04:00:06;;;;;;;25.13;13.60;;;-0.90;99.90;;;;;;5010510;28;20239;-55
2022/03/01 04:02:36;;;;;;;28.50;14.80;;;-0.90;99.90;;;;;;5010375;28;20206;-55
2022/03/01 04:05:05;;;;;;;27.47;14.90;;;-0.90;99.90;;;;;;5013533;28;20207;-55
2022/03/01 04:07:33;;;;;;;25.23;12.57;;;-0.90;99.90;;;;;;5030193;28;20784;-57
2022/03/01 04:10:01;;;;;;;26.77;13.90;;;-0.90;99.90;;;;;;5029935;28;20927;-56
2022/03/01 04:12:29;;;;;;;25.50;13.23;;;-0.90;99.90;;;;;;5029271;28;20210;-56
2022/03/01 04:14:57;;;;;;;27.10;13.63;;;-1.00;99.90;;;;;;5030064;28;20214;-55
2022/03/01 04:17:25;;;;;;;30.53;13.70;;;-0.90;99.90;;;;;;5029838;28;20265;-55
2022/03/01 04:19:54;;;;;;;23.97;13.23;;;-0.90;99.90;;;;;;5030189;28;20245;-55
2022/03/01 04:22:22;;;;;;;25.83;13.87;;;-0.90;99.90;;;;;;5029176;28;20213;-55
2022/03/01 04:24:51;;;;;;;23.33;13.57;;;-1.00;99.90;;;;;;5029341;28;20907;-55
2022/03/01 04:27:19;;;;;;;21.67;12.73;;;-1.00;99.90;;;;;;5029580;28;20315;-56
2022/03/01 04:29:47;;;;;;;24.80;12.77;;;-1.00;99.90;;;;;;5030164;28;20205;-55
2022/03/01 04:32:15;;;;;;;23.77;13.27;;;-1.10;99.90;;;;;;5029014;28;20206;-55
2022/03/01 04:34:44;;;;;;;22.70;13.20;;;-1.10;99.90;;;;;;5029996;28;20210;-55
2022/03/01 04:37:13;;;;;;;24.30;13.87;;;-1.20;99.90;;;;;;5030121;28;20242;-55
2022/03/01 04:39:42;;;;;;;19.83;12.23;;;-1.20;99.90;;;;;;5029155;28;20252;-55
2022/03/01 04:42:14;;;;;;;24.90;13.97;;;-1.20;99.90;;;;;;5029492;28;20194;-55
2022/03/01 04:44:43;;;;;;;23.13;13.07;;;-1.20;99.90;;;;;;5029646;28;20264;-55
2022/03/01 04:47:14;;;;;;;25.00;13.77;;;-1.20;99.90;;;;;;5029289;28;20222;-55
2022/03/01 04:49:42;;;;;;;22.70;12.97;;;-1.20;99.90;;;;;;5029498;28;20774;-55
2022/03/01 04:52:13;;;;;;;22.83;13.03;;;-1.20;99.90;;;;;;5029395;28;20236;-55
2022/03/01 04:54:41;;;;;;;24.30;13.33;;;-1.30;99.90;;;;;;5029602;28;20248;-55
2022/03/01 04:57:09;;;;;;;22.27;13.50;;;-1.30;99.90;;;;;;5029453;28;20662;-55
2022/03/01 04:59:37;;;;;;;24.80;14.03;;;-1.30;99.90;;;;;;5029847;28;20214;-55
2022/03/01 05:02:05;;;;;;;24.43;13.90;;;-1.30;99.90;;;;;;5028931;28;20210;-55
2022/03/01 05:04:34;;;;;;;22.77;13.10;;;-1.30;99.90;;;;;;5028093;28;20294;-55
2022/03/01 05:07:02;;;;;;;24.27;13.43;;;-1.30;99.90;;;;;;5029446;28;20292;-55
2022/03/01 05:09:34;;;;;;;24.33;14.50;;;-1.40;99.90;;;;;;5029629;28;20289;-55
2022/03/01 05:12:02;;;;;;;23.30;13.80;;;-1.40;99.90;;;;;;5029107;28;20800;-55
2022/03/01 05:14:33;;;;;;;27.13;13.60;;;-1.40;99.90;;;;;;5029190;28;20730;-55
2022/03/01 05:17:02;;;;;;;24.70;13.10;;;-1.40;99.90;;;;;;5029020;28;20202;-55
2022/03/01 05:19:30;;;;;;;22.40;13.30;;;-1.40;99.90;;;;;;5029264;28;20206;-55
2022/03/01 05:21:58;;;;;;;24.87;14.03;;;-1.50;99.90;;;;;;5028993;28;20650;-55
2022/03/01 05:24:27;;;;;;;22.00;13.50;;;-1.50;99.90;;;;;;5028981;28;20206;-55
2022/03/01 05:26:56;;;;;;;24.33;13.80;;;-1.50;99.90;;;;;;5029422;28;20207;-55
2022/03/01 05:29:24;;;;;;;23.20;13.47;;;-1.50;99.90;;;;;;5028834;28;20816;-55
2022/03/01 05:31:52;;;;;;;24.43;12.57;;;-1.50;99.90;;;;;;5029028;28;20628;-56
2022/03/01 05:34:21;;;;;;;26.00;13.27;;;-1.50;99.90;;;;;;5029585;28;20737;-56
2022/03/01 05:36:49;;;;;;;23.87;13.03;;;-1.50;99.90;;;;;;5033294;28;20297;-56
2022/03/01 05:39:17;;;;;;;23.50;13.30;;;-1.60;99.90;;;;;;5046618;22;20261;-52
2022/03/01 05:41:46;;;;;;;22.87;13.73;;;-1.60;99.90;;;;;;5032423;28;20307;-51
2022/03/01 05:44:15;;;;;;;24.33;13.10;;;-1.60;99.90;;;;;;5032723;28;20206;-51
2022/03/01 05:46:44;;;;;;;21.97;13.03;;;-1.60;99.90;;;;;;5032763;28;20210;-51
2022/03/01 05:49:12;;;;;;;24.13;13.27;;;-1.70;99.90;;;;;;5032595;28;20607;-51
2022/03/01 05:51:40;;;;;;;22.83;13.07;;;-1.70;99.90;;;;;;5032613;28;20214;-51
2022/03/01 05:54:08;;;;;;;23.83;13.23;;;-1.70;99.90;;;;;;5032709;28;20210;-51
2022/03/01 05:56:37;;;;;;;21.90;12.60;;;-1.70;99.90;;;;;;5032693;28;20210;-51
2022/03/01 05:59:05;;;;;;;25.73;14.00;;;-1.70;99.90;;;;;;5032218;28;20272;-51
2022/03/01 06:01:34;;;;;;;27.27;13.03;;;-1.70;99.90;;;;;;5032621;28;20206;-51
2022/03/01 06:04:03;;;;;;;24.83;13.67;;;-1.70;99.90;;;;;;5032087;28;20217;-51
2022/03/01 06:06:31;;;;;;;23.93;12.80;;;-1.70;99.90;;;;;;5032610;28;20248;-51
2022/03/01 06:08:59;;;;;;;23.30;13.27;;;-1.70;99.90;;;;;;5032459;28;20230;-51
2022/03/01 06:11:27;;;;;;;25.83;13.77;;;-1.70;99.90;;;;;;5032817;28;20205;-51
2022/03/01 06:13:55;;;;;;;26.07;14.33;;;-1.70;99.90;;;;;;5032104;28;20206;-51
2022/03/01 06:16:23;;;;;;;29.40;14.43;;;-1.70;99.90;;;;;;5032242;28;20740;-51
2022/03/01 06:18:53;;;;;;;25.87;13.63;;;-1.70;99.90;;;;;;5032028;28;20238;-51
2022/03/01 06:21:21;;;;;;;26.27;14.00;;;-1.70;99.90;;;;;;5032436;28;20213;-51
2022/03/01 06:23:49;;;;;;;24.53;12.97;;;-1.70;99.90;;;;;;5032032;28;20572;-51
2022/03/01 06:26:18;;;;;;;25.83;14.87;;;-1.70;99.90;;;;;;5032447;28;20210;-51
2022/03/01 06:28:46;;;;;;;26.03;14.83;;;-1.70;99.90;;;;;;5031833;28;20853;-52
2022/03/01 06:31:14;;;;;;;22.13;13.10;;;-1.70;99.90;;;;;;5031656;28;20236;-51
2022/03/01 06:33:43;;;;;;;25.70;13.90;;;-1.70;99.90;;;;;;5031498;28;20206;-51
2022/03/01 06:36:12;;;;;;;22.27;13.17;;;-1.70;99.90;;;;;;5032063;28;20275;-50
2022/03/01 06:38:40;;;;;;;25.03;14.73;;;-1.70;99.90;;;;;;5032292;28;20268;-51
2022/03/01 06:41:09;;;;;;;23.87;13.20;;;-1.60;99.90;;;;;;5032164;28;20268;-51
2022/03/01 06:43:37;;;;;;;25.07;14.60;;;-1.60;99.90;;;;;;5031508;28;20206;-52
2022/03/01 06:46:05;;;;;;;23.70;13.93;;;-1.60;99.90;;;;;;5030806;28;20249;-51
2022/03/01 06:48:33;;;;;;;25.80;13.93;;;-1.50;99.90;;;;;;5031851;28;21023;-51
2022/03/01 06:51:01;;;;;;;27.90;14.37;;;-1.50;99.90;;;;;;5017169;28;20803;-51
2022/03/01 06:53:31;;;;;;;24.20;14.73;;;-1.40;99.90;;;;;;5027240;28;20256;-51
2022/03/01 06:55:59;;;;;;;21.63;13.93;;;-1.00;99.90;;;;;;5031729;28;20229;-51
2022/03/01 06:58:28;;;;;;;21.57;13.47;;;-0.60;99.90;;;;;;5031847;28;20277;-51
2022/03/01 07:00:56;;;;;;;21.40;13.37;;;-0.40;99.90;;;;;;5031843;28;20225;-51
2022/03/01 07:03:25;;;;;;;22.13;13.73;;;-0.30;99.90;;;;;;5030984;28;20699;-51
2022/03/01 07:05:53;;;;;;;25.83;14.57;;;-0.20;99.90;;;;;;5030825;28;20254;-51
2022/03/01 07:08:24;;;;;;;23.83;14.23;;;-0.10;99.90;;;;;;5031358;28;20253;-53
2022/03/01 07:10:53;;;;;;;26.70;14.83;;;-0.20;99.90;;;;;;5031730;28;20287;-51
2022/03/01 07:13:22;;;;;;;27.40;16.40;;;-0.30;99.90;;;;;;5031143;28;20212;-51
2022/03/01 07:15:50;;;;;;;26.10;15.83;;;-0.20;99.90;;;;;;5031929;28;20257;-51
2022/03/01 07:18:18;;;;;;;24.13;15.57;;;-0.10;99.90;;;;;;5031504;28;20225;-51
2022/03/01 07:20:46;;;;;;;23.93;15.87;;;-0.10;99.90;;;;;;5031228;28;20210;-51
2022/03/01 07:23:14;;;;;;;27.23;15.50;;;0.10;99.90;;;;;;5031260;28;20211;-51
2022/03/01 07:25:43;;;;;;;25.83;15.40;;;0.30;99.90;;;;;;5031683;28;20209;-51
2022/03/01 07:28:12;;;;;;;22.47;14.93;;;0.60;99.90;;;;;;5031283;28;20232;-51
2022/03/01 07:30:41;;;;;;;24.10;14.63;;;0.70;99.90;;;;;;5031111;28;20258;-51
2022/03/01 07:33:09;;;;;;;22.93;15.20;;;0.90;99.90;;;;;;5030822;28;20210;-51
2022/03/01 07:35:37;;;;;;;24.10;15.73;;;0.70;99.90;;;;;;5030795;28;20206;-51
2022/03/01 07:38:05;;;;;;;22.53;15.20;;;0.80;99.90;;;;;;5030728;28;20806;-51
2022/03/01 07:40:33;;;;;;;22.73;14.70;;;0.90;99.90;;;;;;5030521;28;20209;-51
2022/03/01 07:43:01;;;;;;;22.87;15.07;;;1.10;99.90;;;;;;5030179;28;20623;-51
2022/03/01 07:45:31;;;;;;;23.07;14.43;;;1.50;99.90;;;;;;5030139;28;20202;-51
2022/03/01 07:48:01;;;;;;;26.33;14.83;;;1.70;99.90;;;;;;5030490;28;20260;-51
2022/03/01 07:50:31;;;;;;;24.77;15.40;;;1.70;99.90;;;;;;5030993;28;20203;-51
2022/03/01 07:52:59;;;;;;;21.37;14.40;;;1.80;99.90;;;;;;5030245;28;20260;-51
2022/03/01 07:55:29;;;;;;;24.37;14.73;;;1.90;99.90;;;;;;5030453;28;20206;-51
2022/03/01 07:57:57;;;;;;;23.03;15.57;;;2.00;99.90;;;;;;5029845;28;20329;-51
2022/03/01 08:00:25;;;;;;;25.13;15.53;;;2.00;99.90;;;;;;5030546;28;20212;-51
2022/03/01 08:02:55;;;;;;;23.87;15.37;;;2.20;99.90;;;;;;5030002;28;20220;-51
2022/03/01 08:05:23;;;;;;;22.57;15.47;;;2.20;99.90;;;;;;5029202;28;20306;-51
2022/03/01 08:07:56;;;;;;;23.90;15.30;;;2.10;99.90;;;;;;5030386;28;20222;-51
2022/03/01 08:10:24;;;;;;;25.70;15.50;;;2.00;99.90;;;;;;5030169;28;20233;-51
2022/03/01 08:12:54;;;;;;;23.83;15.17;;;1.90;99.90;;;;;;5029760;28;20242;-51
2022/03/01 08:15:25;;;;;;;22.67;14.73;;;1.80;99.90;;;;;;5030285;28;20777;-52
2022/03/01 08:17:56;;;;;;;23.23;15.53;;;1.90;99.90;;;;;;5030106;28;20223;-50
2022/03/01 08:20:25;;;;;;;24.80;15.10;;;1.80;99.90;;;;;;5030399;28;20590;-50
2022/03/01 08:22:56;;;;;;;21.77;14.87;;;1.90;99.90;;;;;;5029508;28;20240;-51
2022/03/01 08:25:25;;;;;;;24.77;15.83;;;1.90;99.90;;;;;;5024132;28;20269;-51
2022/03/01 08:27:53;;;;;;;22.30;15.30;;;1.90;99.90;;;;;;5029530;28;20217;-51
2022/03/01 08:30:21;;;;;;;25.17;15.63;;;2.00;99.90;;;;;;5029890;28;20292;-51
2022/03/01 08:32:50;;;;;;;26.47;15.77;;;2.10;99.90;;;;;;5029602;28;20271;-51
2022/03/01 08:35:19;;;;;;;23.53;15.30;;;2.20;99.90;;;;;;5030075;28;20266;-51
2022/03/01 08:37:47;;;;;;;28.27;16.13;;;2.30;99.90;;;;;;5023163;28;20734;-51
2022/03/01 08:40:18;;;;;;;24.20;15.87;;;2.30;99.90;;;;;;5017916;28;20260;-52
2022/03/01 08:42:47;;;;;;;23.07;15.67;;;2.40;99.90;;;;;;5029284;28;20573;-51
2022/03/01 08:45:15;;;;;;;26.90;15.90;;;2.40;99.90;;;;;;5029217;28;20740;-51
2022/03/01 08:47:43;;;;;;;24.23;15.50;;;2.50;99.90;;;;;;5029540;28;20205;-51
2022/03/01 08:50:12;;;;;;;22.63;14.87;;;2.60;99.90;;;;;;5029133;28;20244;-51
2022/03/01 08:53:03;;;;;;;21.43;15.20;;;2.60;99.90;;;;;;5027004;28;20244;-51
2022/03/01 08:55:31;;;;;;;22.57;14.97;;;2.70;99.90;;;;;;5023984;28;20261;-51
2022/03/01 08:58:02;;;;;;;24.90;16.17;;;2.80;99.90;;;;;;5029869;28;20197;-50
2022/03/01 09:00:30;;;;;;;22.83;15.37;;;2.90;99.90;;;;;;5028918;28;20264;-51
2022/03/01 09:02:59;;;;;;;23.97;15.37;;;2.90;99.90;;;;;;5028923;28;20244;-51
2022/03/01 09:05:27;;;;;;;20.33;13.30;;;2.90;99.90;;;;;;5029331;28;20720;-51
2022/03/01 09:07:56;;;;;;;18.90;13.50;;;3.10;99.90;;;;;;5029203;28;20206;-51
2022/03/01 09:10:27;;;;;;;21.90;14.30;;;3.20;99.90;;;;;;5032184;28;20218;-51
2022/03/01 09:12:58;;;;;;;23.60;14.53;;;3.20;99.90;;;;;;5032565;28;20214;-51
2022/03/01 09:15:31;;;;;;;23.80;15.27;;;3.30;99.90;;;;;;5033291;28;20238;-51
2022/03/01 09:18:00;;;;;;;21.70;14.00;;;3.50;99.90;;;;;;5033125;28;20273;-51
2022/03/01 09:20:29;;;;;;;22.50;14.60;;;3.60;99.90;;;;;;5033963;28;20206;-51
2022/03/01 09:22:58;;;;;;;20.43;13.77;;;3.80;99.90;;;;;;5033121;28;20249;-51
2022/03/01 09:25:28;;;;;;;17.53;13.57;;;3.90;99.90;;;;;;5032764;28;20214;-52
2022/03/01 09:27:56;;;;;;;17.97;13.50;;;3.90;99.90;;;;;;5033567;28;20267;-51
2022/03/01 09:30:25;;;;;;;22.17;13.90;;;3.90;99.90;;;;;;5032951;28;20281;-51
2022/03/01 09:32:53;;;;;;;18.90;13.00;;;3.80;99.90;;;;;;5032680;28;20256;-51
2022/03/01 09:35:21;;;;;;;21.37;13.80;;;3.80;99.90;;;;;;5033248;28;20275;-51
2022/03/01 09:37:49;;;;;;;20.83;13.53;;;3.70;99.90;;;;;;5032750;28;20213;-51
2022/03/01 09:40:18;;;;;;;20.97;13.10;;;3.60;99.90;;;;;;5033017;28;20264;-51
2022/03/01 09:42:47;;;;;;;20.00;14.10;;;3.60;99.90;;;;;;5032363;28;20210;-51
2022/03/01 09:45:16;;;;;;;19.57;13.97;;;3.70;99.90;;;;;;5032712;28;20665;-51
2022/03/01 09:47:44;;;;;;;20.07;14.07;;;3.90;99.90;;;;;;5027201;28;20795;-51
2022/03/01 09:50:13;;;;;;;19.27;13.10;;;4.10;99.90;;;;;;5013586;28;20309;-51
2022/03/01 09:52:42;;;;;;;19.03;12.73;;;4.20;99.90;;;;;;5011926;28;20252;-49
2022/03/01 09:55:11;;;;;;;17.90;13.50;;;4.30;99.90;;;;;;5013092;28;20630;-51
2022/03/01 09:57:39;;;;;;;19.27;13.20;;;4.30;99.90;;;;;;5031496;28;20207;-51
2022/03/01 10:00:10;;;;;;;18.00;12.70;;;4.40;99.90;;;;;;5031026;28;20268;-51
2022/03/01 10:02:40;;;;;;;20.83;14.03;;;4.30;99.90;;;;;;5031741;28;20206;-50
2022/03/01 10:05:10;;;;;;;21.17;14.17;;;4.30;99.90;;;;;;5032526;28;20250;-50
2022/03/01 10:07:43;;;;;;;18.03;13.00;;;4.30;99.90;;;;;;5032158;28;20207;-51
2022/03/01 10:10:16;;;;;;;21.00;13.33;;;4.30;99.90;;;;;;5031911;28;20774;-51
2022/03/01 10:12:51;;;;;;;18.10;13.63;;;4.30;99.90;;;;;;5032041;28;20221;-51
2022/03/01 10:15:28;;;;;;;18.73;12.53;;;4.30;99.90;;;;;;5032202;28;20193;-51
2022/03/01 10:17:56;;;;;;;19.53;13.00;;;4.30;99.90;;;;;;5032111;28;20236;-51
2022/03/01 10:20:24;;;;;;;18.70;13.23;;;4.30;99.90;;;;;;5031350;28;20213;-51
2022/03/01 10:22:57;;;;;;;20.90;13.77;;;4.40;99.90;;;;;;5031294;28;20213;-50
2022/03/01 10:25:27;;;;;;;21.57;13.80;;;4.50;99.90;;;;;;5032147;28;20204;-51
2022/03/01 10:27:56;;;;;;;19.57;13.67;;;4.50;99.90;;;;;;5032245;28;20223;-51
2022/03/01 10:30:28;;;;;;;16.73;12.80;;;4.70;99.90;;;;;;5031893;28;20217;-51
2022/03/01 10:33:15;;;;;;;20.17;13.40;;;4.70;99.90;;;;;;5031188;28;20216;-52
2022/03/01 10:35:57;;;;;;;17.57;12.20;;;4.70;99.90;;;;;;5032201;28;20190;-51
2022/03/01 10:38:26;;;;;;;20.13;13.50;;;4.90;99.90;;;;;;5031458;28;20237;-51
2022/03/01 10:40:58;;;;;;;18.63;12.60;;;4.90;99.90;;;;;;5031728;28;20284;-51
2022/03/01 10:43:27;;;;;;;19.80;12.87;;;5.00;99.90;;;;;;5030964;28;20203;-51
2022/03/01 10:45:57;;;;;;;17.03;12.70;;;5.00;99.90;;;;;;5032249;28;20238;-50
2022/03/01 10:48:28;;;;;;;18.93;12.67;;;5.00;99.90;;;;;;5031739;28;20666;-51
2022/03/01 10:51:01;;;;;;;19.17;13.33;;;5.00;99.90;;;;;;5031690;28;20277;-51
2022/03/01 10:53:30;;;;;;;19.33;13.17;;;5.10;99.90;;;;;;5030929;28;20209;-50
2022/03/01 10:56:03;;;;;;;20.93;12.93;;;5.10;99.90;;;;;;5031583;28;20209;-51
2022/03/01 10:58:32;;;;;;;18.63;11.80;;;5.10;99.90;;;;;;5031767;28;20287;-51
2022/03/01 11:01:01;;;;;;;18.27;12.87;;;5.00;99.90;;;;;;5030065;28;20213;-52
2022/03/01 11:03:30;;;;;;;16.37;12.27;;;5.10;99.90;;;;;;5030964;28;20210;-51
2022/03/01 11:06:00;;;;;;;18.83;12.73;;;5.00;99.90;;;;;;5027971;28;20214;-51
2022/03/01 11:08:33;;;;;;;14.37;11.10;;;4.90;99.90;;;;;;5016590;28;20578;-51
2022/03/01 11:11:04;;;;;;;19.03;12.07;;;4.80;99.90;;;;;;5026956;28;20275;-51
2022/03/01 11:13:35;;;;;;;19.27;12.30;;;4.80;99.90;;;;;;5030610;28;20210;-51
2022/03/01 11:16:28;;;;;;;17.00;12.00;;;4.80;99.90;;;;;;5031001;28;20223;-51
2022/03/01 11:19:04;;;;;;;16.60;11.63;;;4.90;99.90;;;;;;5031318;28;20233;-51
2022/03/01 11:21:34;;;;;;;17.53;11.83;;;4.80;99.90;;;;;;5031045;28;20338;-51
2022/03/01 11:24:02;;;;;;;17.90;11.47;;;4.90;99.90;;;;;;5030612;28;20821;-51
2022/03/01 11:26:37;;;;;;;16.20;11.53;;;5.00;99.90;;;;;;5029353;28;20207;-52
2022/03/01 11:29:10;;;;;;;16.37;11.23;;;5.20;99.90;;;;;;5030928;28;20285;-51
2022/03/01 11:31:41;;;;;;;19.50;12.97;;;5.30;99.90;;;;;;5029446;28;20266;-51
2022/03/01 11:34:14;;;;;;;15.07;10.77;;;5.40;99.90;;;;;;5010757;28;20246;-51
2022/03/01 11:36:49;;;;;;;17.13;11.77;;;5.40;99.90;;;;;;5011222;28;20687;-51
2022/03/01 11:39:25;;;;;;;19.57;11.50;;;5.40;99.90;;;;;;5010896;28;20240;-52
2022/03/01 11:42:02;;;;;;;17.40;12.70;;;5.40;99.90;;;;;;5018018;28;20822;-51
2022/03/01 11:44:33;;;;;;;16.83;11.70;;;5.40;99.90;;;;;;5024842;28;20207;-51
2022/03/01 11:47:07;;;;;;;17.50;11.90;;;5.60;99.90;;;;;;5030936;28;20703;-52
2022/03/01 11:49:37;;;;;;;16.80;11.43;;;5.70;99.90;;;;;;5030586;28;20255;-51
2022/03/01 11:52:06;;;;;;;17.83;12.43;;;5.70;99.90;;;;;;5029774;28;20233;-51
2022/03/01 11:54:37;;;;;;;16.10;11.37;;;5.70;99.90;;;;;;5030829;28;20229;-51
2022/03/01 11:57:07;;;;;;;14.53;11.07;;;5.80;99.90;;;;;;5029744;28;20686;-51
2022/03/01 11:59:38;;;;;;;17.43;12.77;;;5.90;99.90;;;;;;5030896;28;20243;-51
2022/03/01 12:02:26;;;;;;;17.47;12.43;;;5.80;99.90;;;;;;5030071;28;20208;-51
2022/03/01 12:04:56;;;;;;;17.17;11.80;;;5.90;99.90;;;;;;5030593;28;20194;-51
2022/03/01 12:07:27;;;;;;;16.97;12.93;;;5.90;99.90;;;;;;5030370;28;20211;-51
2022/03/01 12:09:57;;;;;;;20.97;14.47;;;6.00;99.90;;;;;;5030410;28;20228;-52
2022/03/01 12:12:34;;;;;;;14.83;11.67;;;6.00;99.90;;;;;;5029862;28;20240;-51
2022/03/01 12:15:05;;;;;;;16.37;11.57;;;5.90;99.90;;;;;;5030021;28;20250;-51
2022/03/01 12:17:43;;;;;;;19.07;12.03;;;6.00;99.90;;;;;;5030397;28;20205;-52
2022/03/01 12:20:14;;;;;;;16.80;11.60;;;6.10;99.90;;;;;;5029739;28;20234;-51
2022/03/01 12:22:59;;;;;;;17.17;11.90;;;6.30;99.90;;;;;;5029993;28;20209;-50
2022/03/01 12:25:29;;;;;;;17.30;11.70;;;6.40;99.90;;;;;;5029857;28;20276;-51
2022/03/01 12:27:57;;;;;;;17.27;11.50;;;6.40;99.90;;;;;;5030013;28;20267;-51
2022/03/01 12:30:26;;;;;;;18.77;12.33;;;6.50;99.90;;;;;;5030223;28;20213;-51
2022/03/01 12:32:58;;;;;;;16.27;10.80;;;6.60;99.90;;;;;;5029214;28;20251;-51
2022/03/01 12:35:28;;;;;;;16.03;11.73;;;6.60;99.90;;;;;;5029895;28;20266;-51
2022/03/01 12:38:07;;;;;;;16.43;11.40;;;6.60;99.90;;;;;;5029274;28;20219;-52
2022/03/01 12:40:37;;;;;;;14.47;11.13;;;6.70;99.90;;;;;;5029645;28;20682;-52
2022/03/01 12:43:08;;;;;;;14.77;11.17;;;6.80;99.90;;;;;;5028878;28;20239;-52
2022/03/01 12:45:38;;;;;;;15.97;11.33;;;6.70;99.90;;;;;;5028891;28;20286;-52